Time;durP1;ratioP1;P1;durP2;ratioP2;P2;SDS_P1;SDS_P2;PMS_P1;PMS_P2;Temp;Humidity;BMP_temperature;BMP_pressure;BME280_temperature;BME280_humidity;BME280_pressure;Samples;Min_cycle;Max_cycle;Signal;HPM_P1;HPM_P2
2023/08/18 00:00:42;;;;;;;8.20;3.20;;;20.10;80.90;;;;;;5050434;28;20525;-50
2023/08/18 00:03:09;;;;;;;12.87;3.50;;;20.10;99.90;;;;;;5050593;28;20456;-51
2023/08/18 00:05:35;;;;;;;5.00;3.30;;;20.00;99.90;;;;;;5041250;28;20486;-51
2023/08/18 00:08:03;;;;;;;5.20;2.87;;;19.90;99.90;;;;;;5048122;28;20917;-51
2023/08/18 00:10:30;;;;;;;11.00;4.00;;;19.90;99.90;;;;;;5042260;28;20522;-51
2023/08/18 00:12:56;;;;;;;7.40;3.20;;;19.90;99.90;;;;;;5049010;28;20501;-51
2023/08/18 00:15:23;;;;;;;6.83;3.40;;;19.90;99.90;;;;;;5045607;28;20478;-52
2023/08/18 00:17:49;;;;;;;3.97;3.13;;;19.90;99.90;;;;;;5013042;28;962907;-51
2023/08/18 00:20:16;;;;;;;5.50;2.67;;;19.80;99.90;;;;;;5051109;28;20649;-49
2023/08/18 00:22:43;;;;;;;7.50;3.00;;;19.80;99.90;;;;;;5051076;28;20955;-50
2023/08/18 00:25:11;;;;;;;3.33;3.07;;;19.80;99.90;;;;;;5050409;28;20544;-52
2023/08/18 00:27:38;;;;;;;9.43;3.60;;;19.70;99.90;;;;;;5042224;28;20493;-51
2023/08/18 00:30:05;;;;;;;4.90;2.97;;;19.60;99.90;;;;;;5051162;28;20442;-50
2023/08/18 00:32:33;;;;;;;6.63;3.87;;;19.60;99.90;;;;;;5051406;28;20441;-50
2023/08/18 00:35:00;;;;;;;7.13;3.10;;;19.60;99.90;;;;;;5050256;28;20551;-50
2023/08/18 00:37:26;;;;;;;6.23;2.93;;;19.50;99.90;;;;;;5051103;28;20879;-51
2023/08/18 00:39:53;;;;;;;4.83;3.27;;;19.50;99.90;;;;;;5049315;28;20486;-51
2023/08/18 00:42:20;;;;;;;4.20;2.97;;;19.40;99.90;;;;;;5043469;28;20517;-51
2023/08/18 00:44:47;;;;;;;4.90;3.10;;;19.50;99.90;;;;;;5050710;28;20532;-52
2023/08/18 00:47:14;;;;;;;2.67;2.47;;;19.40;99.90;;;;;;5052480;28;20470;-51
2023/08/18 00:49:41;;;;;;;3.23;2.93;;;19.40;99.90;;;;;;5054533;28;20510;-51
2023/08/18 00:52:08;;;;;;;8.93;3.57;;;19.40;99.90;;;;;;5054536;28;20604;-51
2023/08/18 00:54:34;;;;;;;8.23;3.47;;;19.30;99.90;;;;;;5053906;28;20477;-51
2023/08/18 00:57:01;;;;;;;5.30;3.07;;;19.30;99.90;;;;;;5052797;28;20457;-50
2023/08/18 00:59:29;;;;;;;7.10;4.33;;;19.30;99.90;;;;;;5052624;28;20484;-51
2023/08/18 01:02:02;;;;;;;8.63;4.30;;;19.40;99.90;;;;;;5054225;28;20548;-50
2023/08/18 01:04:29;;;;;;;3.93;3.13;;;19.30;99.90;;;;;;5053902;28;20489;-51
2023/08/18 01:06:56;;;;;;;10.43;3.83;;;19.30;99.90;;;;;;5054276;28;20950;-50
2023/08/18 01:09:23;;;;;;;6.97;3.47;;;19.30;99.90;;;;;;5053275;28;20568;-51
2023/08/18 01:11:58;;;;;;;6.50;3.50;;;19.30;99.90;;;;;;5045873;28;20437;-50
2023/08/18 01:14:33;;;;;;;3.40;3.10;;;19.30;99.90;;;;;;5049798;28;20883;-51
2023/08/18 01:17:05;;;;;;;8.33;3.60;;;19.30;99.90;;;;;;5039643;28;21121;-50
2023/08/18 01:19:32;;;;;;;6.50;3.20;;;19.30;99.90;;;;;;5053439;28;20512;-52
2023/08/18 01:21:58;;;;;;;4.03;3.53;;;19.30;99.90;;;;;;5053926;28;20525;-51
2023/08/18 01:24:26;;;;;;;10.27;3.20;;;19.30;99.90;;;;;;5051689;28;20492;-51
2023/08/18 01:26:53;;;;;;;6.70;3.57;;;19.20;99.90;;;;;;5050058;28;20465;-51
2023/08/18 01:29:21;;;;;;;4.27;2.80;;;19.20;99.90;;;;;;5053409;28;20967;-50
2023/08/18 01:31:52;;;;;;;5.90;3.30;;;19.20;99.90;;;;;;5054037;28;20488;-50
2023/08/18 01:34:22;;;;;;;6.73;3.40;;;19.10;99.90;;;;;;5053147;28;20430;-51
2023/08/18 01:36:51;;;;;;;4.87;3.20;;;19.10;99.90;;;;;;5053741;28;20982;-52
2023/08/18 01:39:20;;;;;;;4.10;2.83;;;19.10;99.90;;;;;;5047463;28;20525;-51
2023/08/18 01:41:49;;;;;;;6.80;3.07;;;19.00;99.90;;;;;;5049707;28;20902;-51
2023/08/18 01:44:18;;;;;;;7.03;3.50;;;19.00;99.90;;;;;;5052983;28;20445;-51
2023/08/18 01:46:45;;;;;;;7.37;2.87;;;19.00;99.90;;;;;;5053118;28;20450;-51
2023/08/18 01:49:12;;;;;;;4.57;3.10;;;19.00;99.90;;;;;;5044897;28;20497;-50
2023/08/18 01:51:38;;;;;;;5.50;3.13;;;19.00;99.90;;;;;;5053449;28;20473;-50
2023/08/18 01:54:05;;;;;;;8.07;3.00;;;18.90;99.90;;;;;;5049612;28;20490;-51
2023/08/18 01:56:31;;;;;;;3.40;3.10;;;18.90;99.90;;;;;;5047656;28;20496;-52
2023/08/18 01:59:00;;;;;;;11.20;3.33;;;18.90;99.90;;;;;;5052734;28;20497;-51
2023/08/18 02:01:26;;;;;;;5.93;2.80;;;18.90;99.90;;;;;;5052044;28;21062;-51
2023/08/18 02:03:53;;;;;;;3.00;2.70;;;18.90;99.90;;;;;;5044250;28;20446;-51
2023/08/18 02:06:20;;;;;;;8.67;3.07;;;18.90;99.90;;;;;;5053164;28;20478;-50
2023/08/18 02:08:46;;;;;;;2.43;2.23;;;18.90;99.90;;;;;;5053218;28;20545;-51
2023/08/18 02:11:13;;;;;;;4.80;2.90;;;18.90;99.90;;;;;;5043705;28;20839;-51
2023/08/18 02:13:40;;;;;;;4.73;2.97;;;18.80;99.90;;;;;;5052541;28;20446;-50
2023/08/18 02:16:08;;;;;;;4.90;3.00;;;18.80;99.90;;;;;;5052269;28;20496;-51
2023/08/18 02:18:34;;;;;;;6.37;2.63;;;18.80;99.90;;;;;;5052669;28;20614;-50
2023/08/18 02:21:03;;;;;;;7.13;3.40;;;18.80;99.90;;;;;;5053165;28;20469;-51
2023/08/18 02:23:29;;;;;;;2.90;2.70;;;18.80;99.90;;;;;;5052419;28;20482;-50
2023/08/18 02:26:00;;;;;;;8.83;3.00;;;18.80;99.90;;;;;;5051657;28;20903;-51
2023/08/18 02:28:27;;;;;;;7.73;3.00;;;18.80;99.90;;;;;;5052762;28;20572;-50
2023/08/18 02:30:59;;;;;;;14.90;3.47;;;18.70;99.90;;;;;;5052540;28;20959;-50
2023/08/18 02:33:28;;;;;;;6.37;3.10;;;18.70;99.90;;;;;;5052874;28;20458;-50
2023/08/18 02:35:54;;;;;;;2.90;2.63;;;18.70;99.90;;;;;;5052426;28;20886;-50
2023/08/18 02:38:21;;;;;;;4.03;3.23;;;18.70;99.90;;;;;;5052659;28;20498;-51
2023/08/18 02:40:47;;;;;;;6.07;3.10;;;18.70;99.90;;;;;;5043229;28;21024;-51
2023/08/18 02:43:14;;;;;;;7.77;3.27;;;18.70;99.90;;;;;;5032487;28;20533;-50
2023/08/18 02:45:40;;;;;;;8.53;3.33;;;18.60;99.90;;;;;;5032022;28;20470;-50
2023/08/18 02:48:07;;;;;;;3.53;2.77;;;18.60;99.90;;;;;;5037682;28;20493;-51
2023/08/18 02:50:35;;;;;;;6.87;3.50;;;18.60;99.90;;;;;;5052357;28;20977;-51
2023/08/18 02:53:03;;;;;;;8.30;3.20;;;18.60;99.90;;;;;;5051376;28;20466;-51
2023/08/18 02:55:30;;;;;;;3.50;2.80;;;18.60;99.90;;;;;;5051536;28;20537;-51
2023/08/18 02:57:56;;;;;;;5.67;3.93;;;18.60;99.90;;;;;;5052272;28;20571;-51
2023/08/18 03:00:22;;;;;;;5.10;3.73;;;18.60;99.90;;;;;;5052385;28;20481;-51
2023/08/18 03:02:50;;;;;;;4.57;3.00;;;18.60;99.90;;;;;;5051970;28;20509;-51
2023/08/18 03:05:16;;;;;;;10.93;2.90;;;18.60;99.90;;;;;;5051313;28;20540;-51
2023/08/18 03:07:44;;;;;;;10.43;3.40;;;18.60;99.90;;;;;;5050797;28;20947;-51
2023/08/18 03:10:11;;;;;;;3.63;3.07;;;18.60;99.90;;;;;;5051742;28;20473;-50
2023/08/18 03:12:37;;;;;;;4.43;3.70;;;18.60;99.90;;;;;;5052008;28;20470;-51
2023/08/18 03:15:05;;;;;;;6.43;3.23;;;18.60;99.90;;;;;;5051204;28;20473;-51
2023/08/18 03:17:32;;;;;;;9.50;3.50;;;18.60;99.90;;;;;;5051667;28;20488;-51
2023/08/18 03:19:58;;;;;;;3.80;3.13;;;18.60;99.90;;;;;;5052370;28;20446;-53
2023/08/18 03:22:25;;;;;;;3.23;2.93;;;18.60;99.90;;;;;;5047377;28;20919;-53
2023/08/18 03:24:53;;;;;;;9.53;3.07;;;18.60;99.90;;;;;;5051291;28;20466;-52
2023/08/18 03:27:19;;;;;;;7.93;3.30;;;18.60;99.90;;;;;;5049474;28;20481;-51
2023/08/18 03:29:46;;;;;;;4.50;3.30;;;18.60;99.90;;;;;;5051567;28;20875;-52
2023/08/18 03:32:12;;;;;;;6.60;2.87;;;18.60;99.90;;;;;;5048192;28;20490;-52
2023/08/18 03:34:39;;;;;;;7.63;3.40;;;18.60;99.90;;;;;;5048453;28;20489;-51
2023/08/18 03:37:05;;;;;;;6.47;3.03;;;18.60;99.90;;;;;;5048641;28;20469;-52
2023/08/18 03:39:32;;;;;;;5.40;3.20;;;18.60;99.90;;;;;;5046785;28;20547;-53
2023/08/18 03:42:00;;;;;;;11.80;3.83;;;18.60;99.90;;;;;;5050343;28;20477;-52
2023/08/18 03:44:26;;;;;;;4.03;3.00;;;18.60;99.90;;;;;;5046802;28;20466;-52
2023/08/18 03:46:53;;;;;;;4.03;3.13;;;18.60;99.90;;;;;;5051441;28;20939;-51
2023/08/18 03:49:19;;;;;;;3.37;2.60;;;18.60;99.90;;;;;;5050484;28;20505;-52
2023/08/18 03:51:46;;;;;;;9.17;3.27;;;18.60;99.90;;;;;;5038701;28;20454;-51
2023/08/18 03:54:12;;;;;;;9.33;3.60;;;18.60;99.90;;;;;;5050503;28;20466;-53
2023/08/18 03:56:39;;;;;;;8.27;3.67;;;18.60;99.90;;;;;;5051652;28;20474;-51
2023/08/18 03:59:07;;;;;;;9.20;3.93;;;18.60;99.90;;;;;;5050934;28;20494;-51
2023/08/18 04:01:33;;;;;;;10.23;3.17;;;18.60;99.90;;;;;;5045997;28;20943;-52
2023/08/18 04:04:00;;;;;;;6.67;3.30;;;18.50;99.90;;;;;;5049601;28;21092;-52
2023/08/18 04:06:26;;;;;;;5.67;3.20;;;18.60;99.90;;;;;;5051582;28;20476;-53
2023/08/18 04:09:06;;;;;;;3.83;3.33;;;18.60;99.90;;;;;;5041926;28;20510;-52
2023/08/18 04:11:32;;;;;;;7.20;3.00;;;18.60;99.90;;;;;;5049142;28;20475;-52
2023/08/18 04:13:59;;;;;;;9.73;3.90;;;18.60;99.90;;;;;;5038841;28;20489;-52
2023/08/18 04:16:27;;;;;;;5.07;3.47;;;18.60;99.90;;;;;;5048274;28;21061;-52
2023/08/18 04:18:53;;;;;;;7.47;3.60;;;18.60;99.90;;;;;;5048721;28;20582;-51
2023/08/18 04:21:20;;;;;;;6.00;4.00;;;18.60;99.90;;;;;;5051345;28;20480;-51
2023/08/18 04:23:46;;;;;;;11.40;3.60;;;18.60;99.90;;;;;;5045537;28;20518;-53
2023/08/18 04:26:13;;;;;;;5.43;3.33;;;18.70;99.90;;;;;;5054709;28;20927;-54
2023/08/18 04:28:39;;;;;;;7.27;4.20;;;18.60;99.90;;;;;;5054947;28;20887;-52
2023/08/18 04:31:06;;;;;;;4.53;3.67;;;18.70;99.90;;;;;;5053892;28;20493;-53
2023/08/18 04:33:34;;;;;;;15.23;3.90;;;18.70;99.90;;;;;;5054416;28;20457;-51
2023/08/18 04:36:00;;;;;;;5.73;3.70;;;18.70;99.90;;;;;;5054722;28;20469;-51
2023/08/18 04:38:27;;;;;;;5.00;3.73;;;18.70;99.90;;;;;;5048670;28;20510;-52
2023/08/18 04:40:57;;;;;;;4.70;3.67;;;18.70;99.90;;;;;;5051760;28;20641;-52
2023/08/18 04:43:24;;;;;;;5.50;3.27;;;18.80;99.90;;;;;;5054665;28;21017;-53
2023/08/18 04:45:51;;;;;;;5.90;3.70;;;18.80;99.90;;;;;;5052953;28;20496;-53
2023/08/18 04:48:17;;;;;;;3.83;3.50;;;18.80;99.90;;;;;;5054687;28;20494;-51
2023/08/18 04:50:45;;;;;;;5.10;3.43;;;18.80;99.90;;;;;;5054821;28;20476;-53
2023/08/18 04:53:12;;;;;;;5.03;3.50;;;18.80;99.90;;;;;;5050405;28;20490;-52
2023/08/18 04:55:39;;;;;;;6.40;3.90;;;18.80;99.90;;;;;;5049594;28;20488;-52
2023/08/18 04:58:09;;;;;;;8.30;3.80;;;18.80;99.90;;;;;;5055052;28;21007;-53
2023/08/18 05:00:35;;;;;;;4.10;3.40;;;18.80;99.90;;;;;;5050785;28;20462;-51
2023/08/18 05:03:03;;;;;;;4.17;3.77;;;18.90;99.90;;;;;;5054540;28;20509;-52
2023/08/18 05:05:30;;;;;;;4.40;3.60;;;18.90;99.90;;;;;;5053606;28;20806;-51
2023/08/18 05:07:58;;;;;;;6.50;4.10;;;18.90;99.90;;;;;;5053022;28;20904;-52
2023/08/18 05:10:24;;;;;;;4.87;3.50;;;18.90;99.90;;;;;;5053942;28;20808;-52
2023/08/18 05:12:51;;;;;;;8.80;4.53;;;19.00;99.90;;;;;;5054377;28;20462;-52
2023/08/18 05:15:17;;;;;;;6.17;4.00;;;19.00;99.90;;;;;;5053714;28;20469;-52
2023/08/18 05:17:44;;;;;;;14.47;3.80;;;19.00;99.90;;;;;;5053923;28;20509;-52
2023/08/18 05:20:11;;;;;;;6.40;3.83;;;19.00;99.90;;;;;;5054094;28;20466;-52
2023/08/18 05:22:38;;;;;;;6.53;3.63;;;19.00;99.90;;;;;;5052641;28;20486;-52
2023/08/18 05:25:07;;;;;;;5.83;3.20;;;19.00;99.90;;;;;;5045040;28;20460;-53
2023/08/18 05:27:34;;;;;;;7.23;3.70;;;19.00;99.90;;;;;;5054005;28;20446;-52
2023/08/18 05:30:01;;;;;;;9.70;3.80;;;19.10;99.90;;;;;;5053882;28;20477;-51
2023/08/18 05:32:28;;;;;;;4.53;4.07;;;19.00;99.90;;;;;;5054148;28;20662;-53
2023/08/18 05:34:55;;;;;;;8.67;3.83;;;19.10;99.90;;;;;;5051673;28;21017;-52
2023/08/18 05:37:21;;;;;;;5.87;3.43;;;19.10;99.90;;;;;;5047722;28;20467;-52
2023/08/18 05:39:48;;;;;;;9.30;4.40;;;19.10;99.90;;;;;;5050028;28;20522;-52
2023/08/18 05:42:16;;;;;;;6.13;4.40;;;19.10;99.90;;;;;;5053773;28;20481;-52
2023/08/18 05:44:43;;;;;;;4.67;4.23;;;19.10;99.90;;;;;;5052959;28;20445;-52
2023/08/18 05:47:09;;;;;;;10.67;4.47;;;19.10;99.90;;;;;;5053304;28;20948;-52
2023/08/18 05:49:36;;;;;;;8.70;4.10;;;19.00;99.90;;;;;;5053354;28;20497;-51
2023/08/18 05:52:02;;;;;;;10.23;3.90;;;19.00;99.90;;;;;;5052492;28;20458;-52
2023/08/18 05:54:29;;;;;;;9.83;4.50;;;19.10;99.90;;;;;;5052826;28;20430;-51
2023/08/18 05:56:55;;;;;;;12.60;4.20;;;19.10;99.90;;;;;;5053336;28;20963;-51
2023/08/18 05:59:23;;;;;;;8.33;4.47;;;19.10;99.90;;;;;;5053358;28;20461;-52
2023/08/18 06:01:51;;;;;;;6.07;4.60;;;19.10;99.90;;;;;;5053232;28;20441;-51
2023/08/18 06:04:18;;;;;;;9.77;4.50;;;19.10;99.90;;;;;;5052333;28;20573;-53
2023/08/18 06:06:44;;;;;;;16.03;4.50;;;19.10;99.90;;;;;;5044592;28;20495;-52
2023/08/18 06:09:11;;;;;;;7.83;4.37;;;19.10;99.90;;;;;;5052481;28;20837;-53
2023/08/18 06:11:37;;;;;;;7.30;4.57;;;19.20;99.90;;;;;;5052980;28;20446;-53
2023/08/18 06:14:04;;;;;;;6.37;4.20;;;19.20;99.90;;;;;;5052494;28;20470;-52
2023/08/18 06:16:32;;;;;;;6.77;4.20;;;19.20;99.90;;;;;;5053140;28;20437;-52
2023/08/18 06:18:58;;;;;;;6.00;4.80;;;19.30;99.90;;;;;;5052923;28;20520;-52
2023/08/18 06:21:25;;;;;;;5.90;4.77;;;19.40;99.90;;;;;;5043941;28;20490;-51
2023/08/18 06:23:51;;;;;;;8.80;4.53;;;19.40;99.90;;;;;;5052042;28;20520;-51
2023/08/18 06:26:18;;;;;;;6.13;4.33;;;19.50;99.90;;;;;;5052791;28;20496;-52
2023/08/18 06:28:44;;;;;;;9.37;4.80;;;19.60;99.90;;;;;;5052899;28;20470;-52
2023/08/18 06:31:11;;;;;;;7.00;4.77;;;19.70;99.90;;;;;;5052689;28;20857;-52
2023/08/18 06:33:38;;;;;;;7.30;5.67;;;19.80;99.90;;;;;;5051265;28;20459;-53
2023/08/18 06:36:06;;;;;;;5.63;4.87;;;19.80;99.90;;;;;;5052427;28;21001;-53
2023/08/18 06:38:32;;;;;;;7.87;4.80;;;19.90;99.90;;;;;;5052443;28;20995;-52
2023/08/18 06:40:59;;;;;;;11.10;5.13;;;19.90;99.90;;;;;;5052693;28;20446;-52
2023/08/18 06:43:25;;;;;;;8.43;5.27;;;20.00;99.90;;;;;;5052320;28;21037;-54
2023/08/18 06:45:52;;;;;;;7.13;4.77;;;20.10;99.90;;;;;;5051594;28;20861;-52
2023/08/18 06:48:18;;;;;;;6.63;5.27;;;20.20;99.90;;;;;;5048852;28;20566;-53
2023/08/18 06:50:46;;;;;;;11.13;5.43;;;20.20;99.90;;;;;;5052394;28;20493;-53
2023/08/18 06:53:13;;;;;;;11.13;5.97;;;20.20;99.90;;;;;;5052281;28;20528;-53
2023/08/18 06:55:39;;;;;;;14.70;5.30;;;20.40;99.90;;;;;;5051585;28;20524;-52
2023/08/18 06:58:06;;;;;;;5.27;4.73;;;20.40;99.90;;;;;;5052426;28;21029;-54
2023/08/18 07:00:33;;;;;;;8.17;5.27;;;20.50;99.90;;;;;;5052006;28;20481;-53
2023/08/18 07:02:59;;;;;;;9.13;5.67;;;20.60;99.90;;;;;;5050294;28;20469;-52
2023/08/18 07:05:26;;;;;;;7.10;5.33;;;20.70;99.90;;;;;;5045907;28;20491;-53
2023/08/18 07:07:55;;;;;;;5.23;4.73;;;20.80;99.90;;;;;;5049215;28;20454;-52
2023/08/18 07:10:22;;;;;;;6.93;5.50;;;20.80;99.90;;;;;;5051876;28;21006;-51
2023/08/18 07:12:48;;;;;;;9.80;6.20;;;20.90;99.90;;;;;;5051802;28;20470;-51
2023/08/18 07:15:15;;;;;;;7.20;5.97;;;21.00;99.90;;;;;;5051458;28;20476;-53
2023/08/18 07:17:41;;;;;;;8.03;6.27;;;21.20;99.90;;;;;;5043612;28;20821;-52
2023/08/18 07:20:10;;;;;;;6.23;5.30;;;21.40;99.90;;;;;;5051109;28;20489;-52
2023/08/18 07:22:37;;;;;;;5.90;5.30;;;21.60;99.90;;;;;;5051996;28;20452;-53
2023/08/18 07:25:06;;;;;;;11.53;5.40;;;21.60;99.90;;;;;;5050967;28;20516;-53
2023/08/18 07:27:32;;;;;;;14.40;5.80;;;21.60;99.90;;;;;;5051875;28;20453;-53
2023/08/18 07:29:59;;;;;;;7.23;6.53;;;21.60;99.90;;;;;;5051503;28;20890;-53
2023/08/18 07:32:25;;;;;;;31.13;6.70;;;21.70;99.90;;;;;;5045653;28;20494;-53
2023/08/18 07:34:52;;;;;;;24.03;7.77;;;21.70;99.90;;;;;;5047977;28;20474;-51
2023/08/18 07:37:18;;;;;;;9.50;6.63;;;21.80;99.90;;;;;;5051673;28;20474;-52
2023/08/18 07:39:45;;;;;;;17.50;5.20;;;21.80;99.90;;;;;;5051330;28;20551;-52
2023/08/18 07:42:13;;;;;;;14.97;6.13;;;21.90;99.90;;;;;;5051613;28;20496;-51
2023/08/18 07:44:39;;;;;;;6.27;5.60;;;21.90;99.90;;;;;;5050916;28;20486;-52
2023/08/18 07:47:06;;;;;;;13.87;6.50;;;22.00;99.90;;;;;;5042018;28;20467;-52
2023/08/18 07:49:33;;;;;;;6.83;6.07;;;22.00;99.90;;;;;;5051488;28;20505;-53
2023/08/18 07:51:59;;;;;;;13.73;5.97;;;22.10;99.90;;;;;;5051412;28;20477;-52
2023/08/18 07:54:26;;;;;;;9.10;6.13;;;22.30;99.90;;;;;;5050692;28;20932;-53
2023/08/18 07:56:52;;;;;;;10.60;5.43;;;22.30;99.90;;;;;;5052548;28;20473;-51
2023/08/18 07:59:20;;;;;;;10.30;5.90;;;22.40;99.90;;;;;;5055241;28;20494;-52
2023/08/18 08:01:47;;;;;;;9.23;6.27;;;22.50;99.90;;;;;;5046228;28;21002;-51
2023/08/18 08:04:14;;;;;;;12.57;6.00;;;22.60;99.90;;;;;;5054834;28;20473;-54
2023/08/18 08:06:40;;;;;;;7.63;5.40;;;22.60;99.90;;;;;;5055359;28;20446;-54
2023/08/18 08:09:07;;;;;;;8.93;5.20;;;22.80;91.80;;;;;;5055324;28;20497;-53
2023/08/18 08:11:33;;;;;;;5.87;5.37;;;22.90;28.70;;;;;;5055816;28;20442;-52
2023/08/18 08:14:01;;;;;;;6.60;5.93;;;22.90;22.40;;;;;;5054702;28;20476;-52
2023/08/18 08:16:30;;;;;;;6.43;5.77;;;23.00;36.30;;;;;;5046109;28;20536;-53
2023/08/18 08:18:56;;;;;;;7.33;5.80;;;23.10;41.10;;;;;;5054850;28;20473;-53
2023/08/18 08:21:23;;;;;;;9.43;6.70;;;23.20;41.50;;;;;;5055128;28;20477;-52
2023/08/18 08:23:49;;;;;;;8.47;5.87;;;23.30;47.20;;;;;;5054408;28;20535;-53
2023/08/18 08:26:16;;;;;;;10.17;5.53;;;23.50;45.10;;;;;;5055335;28;20446;-52
2023/08/18 08:28:44;;;;;;;6.23;5.73;;;23.50;56.20;;;;;;5054759;28;20979;-52
2023/08/18 08:31:10;;;;;;;7.50;5.77;;;23.70;69.90;;;;;;5046160;28;20950;-51
2023/08/18 08:33:38;;;;;;;6.57;5.43;;;23.80;62.10;;;;;;5054345;28;20469;-51
2023/08/18 08:36:05;;;;;;;8.23;6.07;;;23.90;51.20;;;;;;5054915;28;20438;-53
2023/08/18 08:38:32;;;;;;;6.53;5.77;;;23.90;67.10;;;;;;5054821;28;20531;-53
2023/08/18 08:41:00;;;;;;;6.90;5.23;;;24.10;63.20;;;;;;5055015;28;20465;-52
2023/08/18 08:43:27;;;;;;;7.60;5.23;;;24.20;65.90;;;;;;5054642;28;20809;-52
2023/08/18 08:45:54;;;;;;;5.97;5.43;;;24.40;71.30;;;;;;5053459;28;20501;-52
2023/08/18 08:48:22;;;;;;;11.13;5.00;;;24.50;90.30;;;;;;5054585;28;20496;-51
2023/08/18 08:50:55;;;;;;;7.97;4.90;;;24.60;92.50;;;;;;5054803;28;20531;-52
2023/08/18 08:53:29;;;;;;;9.03;6.60;;;24.80;84.30;;;;;;5054721;28;20552;-51
2023/08/18 08:55:57;;;;;;;5.37;4.97;;;24.90;91.00;;;;;;5054506;28;20436;-52
2023/08/18 08:58:23;;;;;;;5.00;4.50;;;25.00;95.80;;;;;;5053455;28;20489;-52
2023/08/18 09:00:50;;;;;;;8.67;5.87;;;25.00;88.80;;;;;;5046288;28;20974;-53
2023/08/18 09:03:16;;;;;;;5.57;5.07;;;25.10;99.90;;;;;;5054638;28;20473;-53
2023/08/18 09:05:43;;;;;;;5.50;4.90;;;25.10;99.00;;;;;;5054275;28;20573;-52
2023/08/18 09:08:11;;;;;;;5.60;5.10;;;25.20;93.70;;;;;;5055235;28;20603;-53
2023/08/18 09:10:40;;;;;;;10.10;6.37;;;25.30;99.90;;;;;;5054303;28;20503;-52
2023/08/18 09:13:07;;;;;;;21.27;5.07;;;25.40;99.90;;;;;;5054378;28;20449;-51
2023/08/18 09:15:34;;;;;;;7.60;5.20;;;25.50;99.90;;;;;;5044889;28;20490;-52
2023/08/18 09:18:03;;;;;;;5.40;4.70;;;25.70;99.90;;;;;;5054403;28;20504;-52
2023/08/18 09:20:30;;;;;;;6.40;4.67;;;25.90;99.90;;;;;;5066373;22;20511;-51
2023/08/18 09:22:57;;;;;;;9.57;5.57;;;26.70;99.90;;;;;;5054263;28;20438;-51
2023/08/18 09:25:25;;;;;;;5.20;4.70;;;27.30;99.90;;;;;;5053491;28;20558;-51
2023/08/18 09:27:52;;;;;;;6.97;4.80;;;27.60;99.90;;;;;;5051649;28;20478;-51
2023/08/18 09:30:18;;;;;;;8.80;5.00;;;27.60;99.90;;;;;;5021022;28;20511;-51
2023/08/18 09:32:45;;;;;;;5.17;4.73;;;27.60;99.90;;;;;;5014210;28;20447;-51
2023/08/18 09:35:13;;;;;;;12.17;5.20;;;27.70;99.90;;;;;;5014879;28;20483;-51
2023/08/18 09:37:39;;;;;;;7.43;4.90;;;27.50;99.90;;;;;;5017134;28;20938;-51
2023/08/18 09:40:08;;;;;;;10.97;5.20;;;27.60;99.90;;;;;;5017263;28;20518;-51
2023/08/18 09:42:35;;;;;;;7.47;4.40;;;27.60;99.90;;;;;;5016287;28;20499;-50
2023/08/18 09:45:02;;;;;;;4.87;4.47;;;28.20;99.90;;;;;;5020679;28;20997;-51
2023/08/18 09:47:30;;;;;;;5.93;4.53;;;28.70;22.70;;;;;;5016563;28;20474;-50
2023/08/18 09:49:59;;;;;;;7.80;5.20;;;28.60;21.40;;;;;;5014162;28;20459;-54
2023/08/18 09:52:28;;;;;;;6.67;5.20;;;28.10;99.90;;;;;;5014290;28;20448;-54
2023/08/18 09:55:03;;;;;;;5.87;4.57;;;28.30;99.90;;;;;;5013377;28;20541;-54
2023/08/18 09:57:34;;;;;;;7.77;4.73;;;28.90;99.90;;;;;;5014095;28;20511;-52
2023/08/18 10:00:04;;;;;;;7.53;5.70;;;29.20;78.00;;;;;;5019857;28;20546;-54
2023/08/18 10:02:36;;;;;;;11.53;5.17;;;29.30;20.10;;;;;;5023600;28;20437;-55
2023/08/18 10:05:03;;;;;;;7.80;4.30;;;29.20;34.60;;;;;;5025179;28;20503;-54
2023/08/18 10:07:31;;;;;;;14.43;4.97;;;29.40;26.50;;;;;;5027714;28;20447;-54
2023/08/18 10:09:58;;;;;;;11.10;4.80;;;29.60;53.40;;;;;;5026670;28;20467;-54
2023/08/18 10:12:24;;;;;;;7.83;5.30;;;30.50;64.10;;;;;;5021124;28;20512;-55
2023/08/18 10:14:53;;;;;;;6.27;4.60;;;30.40;85.20;;;;;;5013009;28;20436;-54
2023/08/18 10:17:24;;;;;;;7.20;4.43;;;30.30;89.50;;;;;;5013536;28;20956;-53
2023/08/18 10:19:52;;;;;;;7.03;4.87;;;29.90;89.10;;;;;;5012769;28;20507;-54
2023/08/18 10:22:22;;;;;;;7.33;4.50;;;29.50;85.10;;;;;;5013327;28;20448;-54
2023/08/18 10:24:49;;;;;;;5.80;4.20;;;29.90;82.20;;;;;;5011723;28;20518;-54
2023/08/18 10:27:31;;;;;;;7.80;4.30;;;30.80;93.50;;;;;;5007939;28;20502;-54
2023/08/18 10:30:01;;;;;;;4.67;4.27;;;31.40;99.90;;;;;;5015491;28;20832;-55
2023/08/18 10:32:30;;;;;;;8.47;4.53;;;31.10;99.90;;;;;;5013072;28;20476;-54
2023/08/18 10:35:18;;;;;;;6.37;4.47;;;31.30;99.90;;;;;;5012204;28;20866;-54
2023/08/18 10:37:45;;;;;;;6.63;4.83;;;31.80;99.90;;;;;;5013164;28;20460;-53
2023/08/18 10:40:22;;;;;;;4.53;4.10;;;31.60;99.90;;;;;;5012159;28;21009;-54
2023/08/18 10:42:51;;;;;;;5.40;4.17;;;32.00;99.90;;;;;;5018028;28;20537;-55
2023/08/18 10:45:28;;;;;;;6.33;4.40;;;31.80;99.90;;;;;;5004932;28;20610;-54
2023/08/18 10:47:58;;;;;;;6.00;4.80;;;31.20;99.90;;;;;;5015631;28;20478;-55
2023/08/18 10:50:26;;;;;;;9.23;4.30;;;31.70;99.90;;;;;;5012224;28;20574;-54
2023/08/18 10:52:54;;;;;;;4.70;4.17;;;32.90;99.90;;;;;;5013103;28;20443;-54
2023/08/18 10:55:21;;;;;;;8.60;4.70;;;32.80;99.90;;;;;;5012044;28;20543;-55
2023/08/18 10:57:48;;;;;;;6.23;4.10;;;32.60;99.90;;;;;;5015452;28;20490;-54
2023/08/18 11:00:17;;;;;;;8.13;4.77;;;33.30;99.90;;;;;;5012301;28;20463;-53
2023/08/18 11:02:44;;;;;;;5.97;4.40;;;32.70;99.90;;;;;;5012854;28;20482;-55
2023/08/18 11:05:13;;;;;;;6.53;4.30;;;32.70;99.90;;;;;;5010896;28;20494;-54
2023/08/18 11:07:40;;;;;;;7.63;4.40;;;33.40;99.90;;;;;;5012448;28;20514;-54
2023/08/18 11:10:15;;;;;;;4.33;4.00;;;33.60;99.90;;;;;;5012142;28;20460;-55
2023/08/18 11:12:42;;;;;;;6.30;4.43;;;33.50;99.90;;;;;;5012462;28;20545;-54
2023/08/18 11:15:09;;;;;;;4.13;3.47;;;32.60;99.90;;;;;;5012424;28;20440;-54
2023/08/18 11:17:35;;;;;;;6.67;4.10;;;32.10;99.90;;;;;;5012131;28;20484;-54
2023/08/18 11:20:03;;;;;;;4.33;4.00;;;31.80;99.90;;;;;;5011773;28;20507;-53
2023/08/18 11:22:32;;;;;;;10.73;3.93;;;32.00;99.90;;;;;;5011088;28;20466;-53
2023/08/18 11:24:59;;;;;;;5.53;4.27;;;31.90;99.90;;;;;;5011489;28;20515;-55
2023/08/18 11:27:25;;;;;;;3.70;3.40;;;32.40;99.90;;;;;;5012639;28;20477;-54
2023/08/18 11:29:52;;;;;;;5.00;3.80;;;31.10;99.90;;;;;;5011270;28;20518;-54
2023/08/18 11:32:19;;;;;;;3.97;3.30;;;31.30;99.90;;;;;;5010920;28;20953;-54
2023/08/18 11:34:46;;;;;;;6.10;4.60;;;31.10;99.90;;;;;;5012294;28;20470;-54
2023/08/18 11:37:12;;;;;;;4.60;3.80;;;31.00;99.90;;;;;;5018164;28;20452;-54
2023/08/18 11:39:40;;;;;;;5.40;3.60;;;30.50;99.90;;;;;;5021838;28;20499;-54
2023/08/18 11:42:07;;;;;;;4.23;3.90;;;30.60;99.90;;;;;;5020860;28;20467;-54
2023/08/18 11:44:33;;;;;;;4.10;3.70;;;30.50;99.90;;;;;;5026548;28;20503;-67
2023/08/18 11:47:02;;;;;;;7.93;4.37;;;30.40;99.90;;;;;;5020141;28;20494;-54
2023/08/18 11:49:29;;;;;;;11.07;4.37;;;30.00;99.90;;;;;;5011584;28;20495;-55
2023/08/18 11:51:56;;;;;;;5.13;3.70;;;30.40;99.90;;;;;;5011912;28;20486;-54
2023/08/18 11:54:24;;;;;;;4.10;3.70;;;30.30;99.90;;;;;;5011989;28;20961;-55
2023/08/18 11:56:52;;;;;;;5.53;3.87;;;30.20;99.90;;;;;;5011690;28;20834;-54
2023/08/18 11:59:20;;;;;;;8.30;4.10;;;30.40;99.90;;;;;;5015473;28;21090;-54
2023/08/18 12:01:46;;;;;;;4.00;3.53;;;30.10;99.90;;;;;;5011999;28;20531;-54
2023/08/18 12:04:13;;;;;;;4.80;3.90;;;30.30;99.90;;;;;;5011127;28;20451;-54
2023/08/18 12:06:40;;;;;;;5.70;3.90;;;30.20;99.90;;;;;;5012111;28;20480;-54
2023/08/18 12:09:10;;;;;;;4.20;3.80;;;30.40;99.90;;;;;;5011807;28;20469;-54
2023/08/18 12:11:39;;;;;;;7.50;3.70;;;30.20;99.90;;;;;;5011730;28;20520;-54
2023/08/18 12:14:07;;;;;;;4.00;3.70;;;30.40;99.90;;;;;;5010540;28;20491;-54
2023/08/18 12:16:34;;;;;;;4.30;3.90;;;30.50;99.90;;;;;;5011658;28;20444;-54
2023/08/18 12:19:00;;;;;;;4.70;4.30;;;30.80;99.90;;;;;;5011539;28;20478;-54
2023/08/18 12:21:27;;;;;;;5.40;4.20;;;30.70;99.90;;;;;;5011790;28;20451;-55
2023/08/18 12:23:54;;;;;;;6.73;4.70;;;30.80;99.90;;;;;;5011083;28;20476;-55
2023/08/18 12:26:20;;;;;;;5.10;4.20;;;30.80;99.90;;;;;;5011646;28;20565;-54
2023/08/18 12:28:47;;;;;;;6.60;5.07;;;31.30;99.90;;;;;;5016439;28;20523;-54
2023/08/18 12:31:17;;;;;;;4.87;4.57;;;31.00;99.90;;;;;;5011635;28;20475;-54
2023/08/18 12:33:44;;;;;;;5.70;4.43;;;31.30;99.90;;;;;;5011026;28;20530;-55
2023/08/18 12:36:11;;;;;;;9.23;5.37;;;31.30;99.90;;;;;;5011730;28;20968;-54
2023/08/18 12:38:37;;;;;;;7.93;4.70;;;31.20;99.90;;;;;;5011582;28;20455;-55
2023/08/18 12:41:05;;;;;;;5.03;4.53;;;30.90;99.90;;;;;;5019012;28;20483;-55
2023/08/18 12:43:31;;;;;;;9.33;4.77;;;31.20;99.90;;;;;;5015324;28;20460;-55
2023/08/18 12:45:58;;;;;;;5.97;4.43;;;31.40;99.90;;;;;;5014781;28;21042;-55